• Join FlightAware (Why Join?)
  • Login
  • US Flag 
04:57AM EST


 

Airport Tracker/Info


-or-


 

Live Flight TrackerFlight Track Log ✈ UCA4809 ✈ 12-Jul-2014 ✈ KIAD - KCLE

Flight Track Log - Related Links

Times and Time Zones

All times are in EDT time to prevent confusion due to time zone crossing. See the UCA4809 flight status page for this flight to view local times or setup timezone preferences in your user account.

Time Position Orientation Groundspeed Altitude Reporting Facility
EDT Latitude Longitude Course Direction KTS MPH feet Rate Location/Type
05:04PM 38.9667 -77.5167 311° West 174 200 1,800  Level Potomac TRACON
05:05PM 39.0000 -77.5667 311° West 197 227 3,100 1,316 Climbing Potomac TRACON
05:06PM 39.0500 -77.6000 333° Northwest 209 241 4,300 1,500 Climbing Potomac TRACON
05:07PM 39.1000 -77.6000 360° North 208 239 6,100 1,571 Climbing Potomac TRACON
05:08PM 39.1500 -77.6000 360° North 206 237 7,600 1,461 Climbing Potomac TRACON
05:09PM 39.2167 -77.5833 11° North 213 245 8,900 1,262 Climbing Potomac TRACON
05:12PM 39.3214 -77.6358 339° North 207 238 11,700 1,212 Climbing Washington Center
05:13PM 39.3686 -77.6775 326° Northwest 202 232 12,900 1,220 Climbing Washington Center
05:14PM 39.4136 -77.7192 324° Northwest 202 232 14,100 1,140 Climbing Washington Center
05:15PM 39.4589 -77.7581 326° Northwest 202 232 15,200 934 Climbing Washington Center
05:16PM 39.5058 -77.7997 326° Northwest 202 232 16,000 814 Climbing Washington Center
05:17PM 39.5553 -77.8417 327° Northwest 202 232 16,800 836 Climbing Washington Center
05:18PM 39.6042 -77.8867 325° Northwest 214 246 17,700 803 Climbing Cleveland Center
05:19PM 39.6617 -77.9386 325° Northwest 208 239 18,500 677 Climbing Cleveland Center
05:20PM 39.7117 -77.9844 325° Northwest 216 249 19,100 726 Climbing Cleveland Center
05:21PM 39.7622 -78.0289 326° Northwest 218 251 20,000 919 Climbing Cleveland Center
05:22PM 39.8100 -78.0714 326° Northwest 210 242 21,000 829 Climbing Cleveland Center
05:23PM 39.8536 -78.1183 320° Northwest 205 236 21,700 488 Climbing Cleveland Center
05:24PM 39.8894 -78.1764 309° West 205 236 22,000 145 Climbing Cleveland Center
05:25PM 39.9308 -78.2392 311° West 225 259 22,000  Level Cleveland Center
05:26PM 39.9778 -78.3122 310° West 233 268 22,000  Level Cleveland Center
05:27PM 40.0208 -78.3794 310° West 239 275 22,000  Level Cleveland Center
05:28PM 40.0647 -78.4453 311° West 240 276 22,000  Level Cleveland Center
05:29PM 40.1178 -78.5261 311° West 243 280 22,000  Level Cleveland Center
05:30PM 40.1617 -78.5931 311° West 243 280 22,000  Level Cleveland Center
05:31PM 40.2044 -78.6619 309° West 244 281 22,000  Level Cleveland Center
05:32PM 40.2492 -78.7294 311° West 244 281 22,000  Level Cleveland Center
05:33PM 40.2922 -78.7989 309° West 246 283 22,000  Level Cleveland Center
05:34PM 40.3361 -78.8678 310° West 246 283 22,000  Level Cleveland Center
05:35PM 40.3839 -78.9553 306° West 246 283 22,000  Level Cleveland Center
05:36PM 40.4247 -79.0272 307° West 246 283 22,000  Level Cleveland Center
05:37PM 40.4656 -79.0986 307° West 247 284 22,000  Level Cleveland Center
05:38PM 40.5058 -79.1717 306° West 247 284 22,000  Level Cleveland Center
05:39PM 40.5469 -79.2428 307° West 247 284 22,000  Level Cleveland Center
05:40PM 40.5914 -79.3244 306° West 249 287 22,000  Level Cleveland Center
05:41PM 40.6328 -79.3975 307° West 250 288 22,000  Level Cleveland Center
05:42PM 40.6733 -79.4706 306° West 250 288 22,000  Level Cleveland Center
05:43PM 40.7147 -79.5436 307° West 250 288 22,000  Level Cleveland Center
05:45PM 40.7633 -79.6317 306° West 250 288 22,000  Level Cleveland Center
05:46PM 40.8047 -79.7053 307° West 250 288 22,000  Level Cleveland Center
05:47PM 40.8450 -79.7789 306° West 250 288 22,000 -290 Level Cleveland Center
05:48PM 40.8861 -79.8550 306° West 251 289 21,400 -677 Descending Cleveland Center
05:49PM 40.9308 -79.9353 306° West 268 308 20,600 -871 Descending Cleveland Center
05:50PM 40.9828 -80.0306 306° West 269 310 19,600 -871 Descending Cleveland Center
05:51PM 41.0272 -80.1092 307° West 269 310 18,800 -774 Descending Cleveland Center
05:52PM 41.0703 -80.1906 305° West 269 310 18,000 -677 Descending Cleveland Center
05:53PM 41.1133 -80.2703 306° West 269 310 17,400 -726 Descending Cleveland Center
05:54PM 41.1636 -80.3611 306° West 269 310 16,500 -677 Descending Cleveland Center
05:55PM 41.2058 -80.4414 305° West 267 307 16,000 -194 Descending Cleveland Center
05:56PM 41.2475 -80.5181 306° West 259 298 16,100 -194 Climbing Cleveland Center
05:57PM 41.2892 -80.5972 305° West 257 296 15,600 -726 Descending Cleveland Center
05:58PM 41.3336 -80.6783 306° West 266 306 14,600 -968 Descending Cleveland Center
05:59PM 41.3667 -80.7667 297° West 266 306 13,600 -1,129 Descending Cleveland Center
05:59PM 41.3819 -80.8094 295° West 262 302 13,000 -1,143 Descending Cleveland Center
06:00PM 41.4050 -80.8656 299° West 260 299 12,400 -990 Descending Cleveland Center
06:01PM 41.4353 -80.9483 296° West 258 297 11,400 -1,086 Descending Cleveland Center
06:02PM 41.4625 -81.0219 296° West 261 300 10,500 -985 Descending Cleveland Center
06:02PM 41.4706 -81.0403 300° West 260 299 10,300 -590 Descending Cleveland Center
06:03PM 41.4950 -81.1078 296° West 264 304 9,900 -484 Descending Cleveland Center
06:03PM 41.5033 -81.1272 300° West 261 300 9,800 -658 Descending Cleveland Center
06:04PM 41.5167 -81.2228 281° West 263 303 9,100 -897 Descending Cleveland Center
06:05PM 41.5183 -81.3011 272° West 252 290 8,200 -930 Descending Cleveland Center
06:05PM 41.5189 -81.3150 273° West 254 292 8,000 -1,200 Descending Cleveland Center
06:06PM 41.5192 -81.3850 270° West 248 285 7,100 -1,355 Descending Cleveland Center
06:06PM 41.5197 -81.4242 271° West 254 292 6,600 -1,254 Descending Cleveland Center
06:07PM 41.5203 -81.4914 271° West 247 284 5,700 -1,161 Descending Cleveland Center
06:07PM 41.5206 -81.5147 271° West 248 285 5,400 -1,111 Descending Cleveland Center
06:08PM 41.5219 -81.5669 272° West 242 278 4,700 -1,161 Descending Cleveland Center
06:08PM 41.5214 -81.6036 269° West 245 282 4,200 -857 Descending Cleveland Center
06:09PM 41.5217 -81.6397 271° West 235 270 4,000 -484 Descending Cleveland Center
06:09PM 41.5183 -81.6858 265° West 231 266 3,700 -818 Descending Cleveland Center
06:10PM 41.5000 -81.7172 232° Southwest 215 247 3,100 -1,065 Descending Cleveland Center
06:10PM 41.4797 -81.7456 226° Southwest 222 255 2,600 -982 Descending Cleveland Center
06:11PM 41.4658 -81.7703 233° Southwest 196 226 2,200 -787 Descending Cleveland Center
06:11PM 41.4497 -81.7947 229° Southwest 187 215 1,800 -655 Descending Cleveland Center
06:12PM 41.4414 -81.8081 230° Southwest 143 165 1,600 -677 Descending Cleveland Center
06:12PM 41.4239 -81.8361 230° Southwest 141 162 1,100 -612 Descending Cleveland Center